createdAt,value
2023-04-01T00:00:51.187Z,4.72
2023-04-01T00:03:20.091Z,8.38
2023-04-01T00:05:49.103Z,10.73
2023-04-01T00:08:18.094Z,4.35
2023-04-01T00:10:47.962Z,5.78
2023-04-01T00:13:16.877Z,5.10
2023-04-01T00:15:45.944Z,9.32
2023-04-01T00:18:14.866Z,8.77
2023-04-01T00:20:46.263Z,6.22
2023-04-01T00:23:14.915Z,7.95
2023-04-01T00:25:43.797Z,5.00
2023-04-01T00:28:13.911Z,5.78
2023-04-01T00:30:42.496Z,6.65
2023-04-01T00:33:11.700Z,4.53
2023-04-01T00:35:40.439Z,5.18
2023-04-01T00:38:09.338Z,2.38
2023-04-01T00:40:38.706Z,6.53
2023-04-01T00:43:12.777Z,2.72
2023-04-01T00:45:43.930Z,2.80
2023-04-01T00:48:13.789Z,3.50
2023-04-01T00:50:43.630Z,4.60
2023-04-01T00:53:12.631Z,3.10
2023-04-01T00:55:44.878Z,3.65
2023-04-01T00:58:16.870Z,4.05
2023-04-01T01:00:48.115Z,2.15
2023-04-01T01:03:17.001Z,3.38
2023-04-01T01:06:04.033Z,3.80
2023-04-01T01:08:39.327Z,3.47
2023-04-01T01:11:08.184Z,4.53
2023-04-01T01:13:39.209Z,5.22
2023-04-01T01:16:13.020Z,3.03
2023-04-01T01:18:45.886Z,4.25
2023-04-01T01:21:31.473Z,7.25
2023-04-01T01:24:11.639Z,3.45
2023-04-01T01:26:46.110Z,3.85
2023-04-01T01:29:20.468Z,3.67
2023-04-01T01:31:53.412Z,4.40
2023-04-01T01:34:24.555Z,4.45
2023-04-01T01:36:57.095Z,4.32
2023-04-01T01:39:28.919Z,3.63
2023-04-01T01:41:59.034Z,1.77
2023-04-01T01:44:28.777Z,1.38
2023-04-01T01:46:58.011Z,4.20
2023-04-01T01:49:27.065Z,2.97
2023-04-01T01:51:57.170Z,2.42
2023-04-01T01:54:25.729Z,3.90
2023-04-01T01:56:55.613Z,2.90
2023-04-01T01:59:25.440Z,3.20
2023-04-01T02:01:54.972Z,2.60
2023-04-01T02:04:24.776Z,3.40
2023-04-01T02:06:56.072Z,3.00
2023-04-01T02:09:26.076Z,5.18
2023-04-01T02:11:55.830Z,3.08
2023-04-01T02:14:26.218Z,4.38
2023-04-01T02:16:56.621Z,4.18
2023-04-01T02:19:26.077Z,5.60
2023-04-01T02:21:56.206Z,4.55
2023-04-01T02:24:28.335Z,6.32
2023-04-01T02:26:56.941Z,8.45
2023-04-01T02:29:26.743Z,5.63
2023-04-01T02:31:56.267Z,6.97
2023-04-01T02:34:25.782Z,6.65
2023-04-01T02:36:55.767Z,6.25
2023-04-01T02:39:24.387Z,12.55
2023-04-01T02:41:54.344Z,9.25
2023-04-01T02:44:23.177Z,6.15
2023-04-01T02:46:51.781Z,3.05
2023-04-01T02:49:20.664Z,1.90
2023-04-01T02:51:49.132Z,2.65
2023-04-01T02:54:17.717Z,4.88
2023-04-01T02:56:46.655Z,2.65
2023-04-01T02:59:16.585Z,4.63
2023-04-01T03:01:45.272Z,5.07
2023-04-01T03:04:13.832Z,6.72
2023-04-01T03:06:42.446Z,3.72
2023-04-01T03:09:11.675Z,3.38
2023-04-01T03:11:41.317Z,2.28
2023-04-01T03:14:09.911Z,3.45
2023-04-01T03:16:40.050Z,6.32
2023-04-01T03:19:08.739Z,3.10
2023-04-01T03:21:37.230Z,3.13
2023-04-01T03:24:06.087Z,6.88
2023-04-01T03:26:34.634Z,3.88
2023-04-01T03:29:03.359Z,5.88
2023-04-01T03:31:32.189Z,7.45
2023-04-01T03:34:02.580Z,6.80
2023-04-01T03:36:31.500Z,9.57
2023-04-01T03:39:00.104Z,10.88
2023-04-01T03:41:28.760Z,8.82
2023-04-01T03:43:57.274Z,10.23
2023-04-01T03:46:25.851Z,9.23
2023-04-01T03:48:54.461Z,9.43
2023-04-01T03:51:24.362Z,11.18
2023-04-01T03:53:52.911Z,8.38
2023-04-01T03:56:21.485Z,10.07
2023-04-01T03:58:50.009Z,10.77
2023-04-01T04:01:19.907Z,10.55
2023-04-01T04:03:50.161Z,7.15
2023-04-01T04:06:19.824Z,9.35
2023-04-01T04:08:49.753Z,11.85
2023-04-01T04:11:18.831Z,8.10
2023-04-01T04:13:48.816Z,13.30
2023-04-01T04:16:18.190Z,12.15
2023-04-01T04:18:46.914Z,11.15
2023-04-01T04:21:16.235Z,9.45
2023-04-01T04:23:45.009Z,7.57
2023-04-01T04:26:15.838Z,6.60
2023-04-01T04:28:44.478Z,6.32
2023-04-01T04:31:13.257Z,6.75
2023-04-01T04:33:41.816Z,5.35
2023-04-01T04:36:10.921Z,6.65
2023-04-01T04:38:39.602Z,7.25
2023-04-01T04:41:12.912Z,6.18
2023-04-01T04:43:43.154Z,6.90
2023-04-01T04:46:12.496Z,5.65
2023-04-01T04:48:41.158Z,5.18
2023-04-01T04:51:10.319Z,4.10
2023-04-01T04:53:38.750Z,5.20
2023-04-01T04:56:07.379Z,3.72
2023-04-01T04:58:35.934Z,4.80
2023-04-01T05:01:10.146Z,5.45
2023-04-01T05:03:38.726Z,4.75
2023-04-01T05:06:07.889Z,5.78
2023-04-01T05:08:36.480Z,7.15
2023-04-01T05:11:05.779Z,9.80
2023-04-01T05:13:34.302Z,9.65
2023-04-01T05:16:02.917Z,9.10
2023-04-01T05:18:32.823Z,11.73
2023-04-01T05:21:01.486Z,9.52
2023-04-01T05:23:31.043Z,9.18
2023-04-01T05:25:59.601Z,9.38
2023-04-01T05:28:28.237Z,7.65
2023-04-01T05:30:56.857Z,7.55
2023-04-01T05:33:25.479Z,6.60
2023-04-01T05:35:55.623Z,7.25
2023-04-01T05:38:24.564Z,10.93
2023-04-01T05:40:53.373Z,8.40
2023-04-01T05:43:21.903Z,8.02
2023-04-01T05:45:51.667Z,7.45
2023-04-01T05:48:20.420Z,8.93
2023-04-01T05:50:49.039Z,8.18
2023-04-01T05:53:18.955Z,6.15
2023-04-01T05:55:47.518Z,7.70
2023-04-01T05:58:16.186Z,5.70
2023-04-01T06:00:45.500Z,6.63
2023-04-01T06:03:14.266Z,6.50
2023-04-01T06:05:43.428Z,8.55
2023-04-01T06:08:17.606Z,7.95
2023-04-01T06:10:56.085Z,7.15
2023-04-01T06:13:28.745Z,5.80
2023-04-01T06:16:00.605Z,6.30
2023-04-01T06:18:43.879Z,6.18
2023-04-01T06:21:20.518Z,6.10
2023-04-01T06:23:55.439Z,5.53
2023-04-01T06:26:33.545Z,5.78
2023-04-01T06:29:29.276Z,5.78
2023-04-01T06:32:09.882Z,8.05
2023-04-01T06:34:48.448Z,5.22
2023-04-01T06:37:28.813Z,6.38
2023-04-01T06:40:09.939Z,5.40
2023-04-01T06:42:47.098Z,6.57
2023-04-01T06:45:22.288Z,6.00
2023-04-01T06:47:59.730Z,5.47
2023-04-01T06:50:32.815Z,6.65
2023-04-01T06:53:07.172Z,6.22
2023-04-01T06:55:39.794Z,6.22
2023-04-01T06:58:14.462Z,7.72
2023-04-01T07:00:44.327Z,6.60
2023-04-01T07:03:18.225Z,10.25
2023-04-01T07:05:46.968Z,10.25
2023-04-01T07:08:18.988Z,10.27
2023-04-01T07:10:50.180Z,9.35
2023-04-01T07:13:23.677Z,10.20
2023-04-01T07:15:58.774Z,11.80
2023-04-01T07:18:31.571Z,10.27
2023-04-01T07:21:00.878Z,12.82
2023-04-01T07:23:31.525Z,11.02
2023-04-01T07:26:03.206Z,11.82
2023-04-01T07:28:35.127Z,7.18
2023-04-01T07:31:09.242Z,7.60
2023-04-01T07:33:42.033Z,8.13
2023-04-01T07:36:15.923Z,7.53
2023-04-01T07:38:49.199Z,7.60
2023-04-01T07:41:23.007Z,7.80
2023-04-01T07:43:59.240Z,7.72
2023-04-01T07:46:35.384Z,7.00
2023-04-01T07:49:06.214Z,5.75
2023-04-01T07:51:37.648Z,7.70
2023-04-01T07:54:09.737Z,7.00
2023-04-01T07:56:41.981Z,6.90
2023-04-01T07:59:14.332Z,6.05
2023-04-01T08:01:46.534Z,8.18
2023-04-01T08:04:25.774Z,7.30
2023-04-01T08:06:56.916Z,8.20
2023-04-01T08:09:29.777Z,7.40
2023-04-01T08:12:06.854Z,8.02
2023-04-01T08:14:40.471Z,9.02
2023-04-01T08:17:12.605Z,8.52
2023-04-01T08:19:53.072Z,10.18
2023-04-01T08:22:24.714Z,7.72
2023-04-01T08:24:54.509Z,8.80
2023-04-01T08:27:25.964Z,7.63
2023-04-01T08:29:59.935Z,7.20
2023-04-01T08:32:31.089Z,7.28
2023-04-01T08:35:10.253Z,7.35
2023-04-01T08:37:42.260Z,7.75
2023-04-01T08:40:21.017Z,7.38
2023-04-01T08:42:57.492Z,7.93
2023-04-01T08:45:37.920Z,6.38
2023-04-01T08:48:14.403Z,7.15
2023-04-01T08:50:56.333Z,7.53
2023-04-01T08:53:30.084Z,7.47
2023-04-01T08:56:06.872Z,7.07
2023-04-01T08:58:57.613Z,8.20
2023-04-01T09:01:35.593Z,8.10
2023-04-01T09:04:13.782Z,8.52
2023-04-01T09:06:47.108Z,8.70
2023-04-01T09:09:26.727Z,11.38
2023-04-01T09:12:13.898Z,11.35
2023-04-01T09:14:51.310Z,8.88
2023-04-01T09:17:34.719Z,11.27
2023-04-01T09:20:18.409Z,10.98
2023-04-01T09:22:53.777Z,11.30
2023-04-01T09:25:27.769Z,10.65
2023-04-01T09:28:00.540Z,10.73
2023-04-01T09:30:50.767Z,10.32
2023-04-01T09:33:36.839Z,11.55
2023-04-01T09:36:10.903Z,10.50
2023-04-01T09:38:46.469Z,11.93
2023-04-01T09:41:21.299Z,12.85
2023-04-01T09:43:59.310Z,11.18
2023-04-01T09:46:35.751Z,11.00
2023-04-01T09:49:19.725Z,13.65
2023-04-01T09:51:56.335Z,13.35
2023-04-01T09:54:29.612Z,11.60
2023-04-01T09:57:22.067Z,14.02
2023-04-01T10:00:00.182Z,14.52
2023-04-01T10:02:46.295Z,17.00
2023-04-01T10:05:33.654Z,16.50
2023-04-01T10:08:32.562Z,15.63
2023-04-01T10:11:18.905Z,18.50
2023-04-01T10:14:01.455Z,15.57
2023-04-01T10:16:54.175Z,16.33
2023-04-01T10:19:37.643Z,15.43
2023-04-01T10:22:21.893Z,15.25
2023-04-01T10:25:07.192Z,14.25
2023-04-01T10:28:05.866Z,15.27
2023-04-01T10:30:52.796Z,14.18
2023-04-01T10:33:38.829Z,13.45
2023-04-01T10:36:25.030Z,14.43
2023-04-01T10:39:08.296Z,16.17
2023-04-01T10:41:55.385Z,14.05
2023-04-01T10:44:47.315Z,15.35
2023-04-01T10:47:40.046Z,13.77
2023-04-01T10:50:20.086Z,15.20
2023-04-01T10:53:04.915Z,15.55
2023-04-01T10:55:39.681Z,16.75
2023-04-01T10:58:19.700Z,17.13
2023-04-01T11:01:02.424Z,18.50
2023-04-01T11:04:00.832Z,20.20
2023-04-01T11:06:44.567Z,18.10
2023-04-01T11:09:31.709Z,17.95
2023-04-01T11:12:11.224Z,19.90
2023-04-01T11:15:02.643Z,21.55
2023-04-01T11:17:46.778Z,19.38
2023-04-01T11:20:48.281Z,24.20
2023-04-01T11:23:31.271Z,19.98
2023-04-01T11:26:05.785Z,20.08
2023-04-01T11:28:47.274Z,16.63
2023-04-01T11:31:26.625Z,19.90
2023-04-01T11:33:57.683Z,21.20
2023-04-01T11:36:35.284Z,20.33
2023-04-01T11:39:07.680Z,24.60
2023-04-01T11:41:39.251Z,18.52
2023-04-01T11:44:25.422Z,20.02
2023-04-01T11:47:05.743Z,20.92
2023-04-01T11:49:43.634Z,20.73
2023-04-01T11:52:20.608Z,21.02
2023-04-01T11:55:05.714Z,22.10
2023-04-01T11:57:46.748Z,18.05
2023-04-01T12:00:23.437Z,21.17
2023-04-01T12:03:04.008Z,19.00
2023-04-01T12:05:41.216Z,17.60
2023-04-01T12:08:13.774Z,16.33
2023-04-01T12:10:47.757Z,13.90
2023-04-01T12:13:27.569Z,13.85
2023-04-01T12:16:17.882Z,14.82
2023-04-01T12:18:51.540Z,14.40
2023-04-01T12:21:24.711Z,13.93
2023-04-01T12:24:05.087Z,11.85
2023-04-01T12:26:43.965Z,11.95
2023-04-01T12:29:22.049Z,12.18
2023-04-01T12:31:52.947Z,15.00
2023-04-01T12:34:34.376Z,14.00
2023-04-01T12:37:07.648Z,13.20
2023-04-01T12:39:44.907Z,12.23
2023-04-01T12:42:20.587Z,14.63
2023-04-01T12:44:58.632Z,12.45
2023-04-01T12:47:37.048Z,12.32
2023-04-01T12:50:17.318Z,12.70
2023-04-01T12:52:53.898Z,12.80
2023-04-01T12:55:38.575Z,12.90
2023-04-01T12:58:26.074Z,13.60
2023-04-01T13:01:15.322Z,11.70
2023-04-01T13:03:58.832Z,14.77
2023-04-01T13:06:35.768Z,13.63
2023-04-01T13:09:09.278Z,13.95
2023-04-01T13:11:47.375Z,12.18
2023-04-01T13:14:32.197Z,12.60
2023-04-01T13:17:08.745Z,12.50
2023-04-01T13:19:44.717Z,12.48
2023-04-01T13:22:23.521Z,13.20
2023-04-01T13:24:54.809Z,12.38
2023-04-01T13:27:28.069Z,12.50
2023-04-01T13:30:03.441Z,14.25
2023-04-01T13:32:43.200Z,12.73
2023-04-01T13:35:23.596Z,13.05
2023-04-01T13:37:57.363Z,13.73
2023-04-01T13:40:29.859Z,12.95
2023-04-01T13:43:00.685Z,16.15
2023-04-01T13:45:32.627Z,13.32
2023-04-01T13:48:15.961Z,14.38
2023-04-01T13:51:00.039Z,13.40
2023-04-01T13:53:44.497Z,12.93
2023-04-01T13:56:23.726Z,13.40
2023-04-01T13:59:13.203Z,13.77
2023-04-01T14:01:44.344Z,18.17
2023-04-01T14:04:23.825Z,13.88
2023-04-01T14:07:01.069Z,13.55
2023-04-01T14:09:52.375Z,12.45
2023-04-01T14:12:28.999Z,13.02
2023-04-01T14:15:08.312Z,16.85
2023-04-01T14:17:49.280Z,12.77
2023-04-01T14:20:35.528Z,13.63
2023-04-01T14:23:21.035Z,11.82
2023-04-01T14:26:04.601Z,12.77
2023-04-01T14:28:35.571Z,14.52
2023-04-01T14:31:31.769Z,17.55
2023-04-01T14:34:04.770Z,11.88
2023-04-01T14:36:41.307Z,12.52
2023-04-01T14:39:19.978Z,15.95
2023-04-01T14:41:51.356Z,12.80
2023-04-01T14:44:36.250Z,11.10
2023-04-01T14:47:18.303Z,10.85
2023-04-01T14:49:49.111Z,15.82
2023-04-01T14:52:19.868Z,13.05
2023-04-01T14:54:51.259Z,11.82
2023-04-01T14:57:26.230Z,10.32
2023-04-01T14:59:56.351Z,11.45
2023-04-01T15:02:36.175Z,11.68
2023-04-01T15:05:13.251Z,11.30
2023-04-01T15:07:59.543Z,9.65
2023-04-01T15:10:44.815Z,9.30
2023-04-01T15:13:16.267Z,8.38
2023-04-01T15:15:56.191Z,11.35
2023-04-01T15:18:30.493Z,9.90
2023-04-01T15:21:18.026Z,8.52
2023-04-01T15:23:51.946Z,9.32
2023-04-01T15:26:29.704Z,10.63
2023-04-01T15:29:08.350Z,9.60
2023-04-01T15:31:40.438Z,9.40
2023-04-01T15:34:18.847Z,9.82
2023-04-01T15:36:48.827Z,7.32
2023-04-01T15:39:20.779Z,7.10
2023-04-01T15:42:01.604Z,8.13
2023-04-01T15:44:39.478Z,6.40
2023-04-01T15:47:14.029Z,7.60
2023-04-01T15:49:45.528Z,8.80
2023-04-01T15:52:17.917Z,6.43
2023-04-01T15:54:54.597Z,8.65
2023-04-01T15:57:32.116Z,7.93
2023-04-01T16:00:14.676Z,7.45
2023-04-01T16:02:47.488Z,7.93
2023-04-01T16:05:27.842Z,7.68
2023-04-01T16:08:04.644Z,8.32
2023-04-01T16:10:37.340Z,7.00
2023-04-01T16:13:16.203Z,7.45
2023-04-01T16:15:51.906Z,7.43
2023-04-01T16:18:35.504Z,8.32
2023-04-01T16:21:05.255Z,7.03
2023-04-01T16:23:39.102Z,8.13
2023-04-01T16:26:11.193Z,7.00
2023-04-01T16:28:45.668Z,6.88
2023-04-01T16:31:18.051Z,6.65
2023-04-01T16:33:49.883Z,7.60
2023-04-01T16:36:25.649Z,7.13
2023-04-01T16:38:57.276Z,8.43
2023-04-01T16:41:27.902Z,8.32
2023-04-01T16:43:59.201Z,8.95
2023-04-01T16:46:33.933Z,10.23
2023-04-01T16:49:04.115Z,10.57
2023-04-01T16:51:45.036Z,10.30
2023-04-01T16:54:17.389Z,10.63
2023-04-01T16:56:48.195Z,12.73
2023-04-01T16:59:22.230Z,11.30
2023-04-01T17:01:53.089Z,10.57
2023-04-01T17:04:26.532Z,12.65
2023-04-01T17:06:59.252Z,11.05
2023-04-01T17:09:32.746Z,13.98
2023-04-01T17:12:07.317Z,13.07
2023-04-01T17:14:41.008Z,11.60
2023-04-01T17:17:15.986Z,13.63
2023-04-01T17:19:59.422Z,12.52
2023-04-01T17:22:35.383Z,11.63
2023-04-01T17:25:16.500Z,13.80
2023-04-01T17:27:49.604Z,14.73
2023-04-01T17:30:26.850Z,15.55
2023-04-01T17:33:03.786Z,14.60
2023-04-01T17:35:35.526Z,14.70
2023-04-01T17:38:10.088Z,14.02
2023-04-01T17:40:44.434Z,12.90
2023-04-01T17:43:18.536Z,14.23
2023-04-01T17:45:52.511Z,14.30
2023-04-01T17:48:24.404Z,14.60
2023-04-01T17:50:56.775Z,13.48
2023-04-01T17:53:31.200Z,14.40
2023-04-01T17:56:07.943Z,14.73
2023-04-01T17:58:41.548Z,14.73
2023-04-01T18:01:20.302Z,14.05
2023-04-01T18:04:02.730Z,14.40
2023-04-01T18:06:37.226Z,14.38
2023-04-01T18:09:11.946Z,17.13
2023-04-01T18:11:46.663Z,16.27
2023-04-01T18:14:37.668Z,15.35
2023-04-01T18:17:16.561Z,16.95
2023-04-01T18:19:49.165Z,15.70
2023-04-01T18:22:20.884Z,14.48
2023-04-01T18:24:57.270Z,15.52
2023-04-01T18:27:27.175Z,15.80
2023-04-01T18:29:57.542Z,14.02
2023-04-01T18:32:37.959Z,17.50
2023-04-01T18:35:18.540Z,17.50
2023-04-01T18:37:49.557Z,18.15
2023-04-01T18:40:22.391Z,17.02
2023-04-01T18:42:56.940Z,14.85
2023-04-01T18:45:29.913Z,16.30
2023-04-01T18:48:03.119Z,18.75
2023-04-01T18:50:33.293Z,16.88
2023-04-01T18:53:11.855Z,17.00
2023-04-01T18:55:44.196Z,16.83
2023-04-01T18:58:20.799Z,15.70
2023-04-01T19:00:52.866Z,18.25
2023-04-01T19:03:24.491Z,19.05
2023-04-01T19:05:54.812Z,17.27
2023-04-01T19:08:28.918Z,18.77
2023-04-01T19:11:02.502Z,19.92
2023-04-01T19:13:33.773Z,15.90
2023-04-01T19:16:07.110Z,18.38
2023-04-01T19:19:05.699Z,17.15
2023-04-01T19:21:38.501Z,17.83
2023-04-01T19:24:14.294Z,18.05
2023-04-01T19:26:44.082Z,13.57
2023-04-01T19:29:20.364Z,15.77
2023-04-01T19:31:54.894Z,15.20
2023-04-01T19:34:28.823Z,12.80
2023-04-01T19:37:00.034Z,8.75
2023-04-01T19:39:34.771Z,10.55
2023-04-01T19:42:07.046Z,8.63
2023-04-01T19:44:40.399Z,8.15
2023-04-01T19:47:14.860Z,8.57
2023-04-01T19:49:50.785Z,7.88
2023-04-01T19:52:25.127Z,8.15
2023-04-01T19:54:57.039Z,8.20
2023-04-01T19:57:29.408Z,7.95
2023-04-01T20:00:00.968Z,7.22
2023-04-01T20:02:36.191Z,8.00
2023-04-01T20:05:07.625Z,8.27
2023-04-01T20:07:41.175Z,9.80
2023-04-01T20:10:12.567Z,8.18
2023-04-01T20:12:46.612Z,8.18
2023-04-01T20:15:30.938Z,8.77
2023-04-01T20:18:01.191Z,7.30
2023-04-01T20:20:31.227Z,6.75
2023-04-01T20:23:11.347Z,6.97
2023-04-01T20:25:43.178Z,7.82
2023-04-01T20:28:15.865Z,8.65
2023-04-01T20:31:09.896Z,8.80
2023-04-01T20:33:58.589Z,9.20
2023-04-01T20:36:29.759Z,9.05
2023-04-01T20:39:18.478Z,9.85
2023-04-01T20:41:52.209Z,9.38
2023-04-01T20:44:23.380Z,9.95
2023-04-01T20:46:55.592Z,9.82
2023-04-01T20:49:33.346Z,9.68
2023-04-01T20:52:05.179Z,9.10
2023-04-01T20:54:43.635Z,9.05
2023-04-01T20:57:14.362Z,8.77
2023-04-01T20:59:54.683Z,7.80
2023-04-01T21:02:33.374Z,8.05
2023-04-01T21:05:17.992Z,6.43
2023-04-01T21:07:49.690Z,7.25
2023-04-01T21:10:30.241Z,7.90
2023-04-01T21:13:05.205Z,8.70
2023-04-01T21:15:41.610Z,7.72
2023-04-01T21:18:18.502Z,8.25
2023-04-01T21:21:02.213Z,8.60
2023-04-01T21:23:46.367Z,7.45
2023-04-01T21:26:27.670Z,7.07
2023-04-01T21:29:02.242Z,5.80
2023-04-01T21:31:40.278Z,6.55
2023-04-01T21:34:27.510Z,5.78
2023-04-01T21:37:01.666Z,7.03
2023-04-01T21:39:39.764Z,6.50
2023-04-01T21:42:15.531Z,6.03
2023-04-01T21:44:50.222Z,6.03
2023-04-01T21:47:36.675Z,6.05
2023-04-01T21:50:26.336Z,5.70
2023-04-01T21:53:15.633Z,5.38
2023-04-01T21:56:03.369Z,5.38
2023-04-01T21:58:49.940Z,5.38
2023-04-01T22:01:30.696Z,5.93
2023-04-01T22:04:18.398Z,5.97
2023-04-01T22:06:48.621Z,6.70
2023-04-01T22:09:21.592Z,7.13
2023-04-01T22:11:55.427Z,6.72
2023-04-01T22:14:29.062Z,7.13
2023-04-01T22:17:04.756Z,6.22
2023-04-01T22:19:38.420Z,6.72
2023-04-01T22:22:10.249Z,8.07
2023-04-01T22:24:43.845Z,9.18
2023-04-01T22:27:17.046Z,8.88
2023-04-01T22:29:50.388Z,9.25
2023-04-01T22:32:21.753Z,8.95
2023-04-01T22:34:53.319Z,9.43
2023-04-01T22:37:26.376Z,10.23
2023-04-01T22:40:06.258Z,8.65
2023-04-01T22:42:43.467Z,7.88
2023-04-01T22:45:29.891Z,6.82
2023-04-01T22:48:02.428Z,7.68
2023-04-01T22:50:34.017Z,8.38
2023-04-01T22:53:06.284Z,8.98
2023-04-01T22:55:37.470Z,9.32
2023-04-01T22:58:07.642Z,8.80
2023-04-01T23:00:39.420Z,7.43
2023-04-01T23:03:12.859Z,6.95
2023-04-01T23:05:44.012Z,6.20
2023-04-01T23:08:31.145Z,6.22
2023-04-01T23:11:01.126Z,6.03
2023-04-01T23:13:32.510Z,7.63
2023-04-01T23:16:02.884Z,6.50
2023-04-01T23:18:36.632Z,5.70
2023-04-01T23:21:14.960Z,6.47
2023-04-01T23:23:55.764Z,7.22
2023-04-01T23:26:26.201Z,8.20
2023-04-01T23:28:55.868Z,7.55
2023-04-01T23:31:30.816Z,6.80
2023-04-01T23:34:01.829Z,6.88
2023-04-01T23:36:31.162Z,6.72
2023-04-01T23:39:02.112Z,7.22
2023-04-01T23:41:31.804Z,6.90
2023-04-01T23:44:02.617Z,8.52
2023-04-01T23:46:34.077Z,7.97
2023-04-01T23:49:03.707Z,7.78
2023-04-01T23:51:39.752Z,7.32
2023-04-01T23:54:14.157Z,6.93
2023-04-01T23:56:44.274Z,6.60
2023-04-01T23:59:16.949Z,6.20
